Time;durP1;ratioP1;P1;durP2;ratioP2;P2;SDS_P1;SDS_P2;PMS_P1;PMS_P2;Temp;Humidity;BMP_temperature;BMP_pressure;BME280_temperature;BME280_humidity;BME280_pressure;Samples;Min_cycle;Max_cycle;Signal;HPM_P1;HPM_P2
2022/08/02 00:03:46;;;;;;;6.25;3.85;;;;;;;17.04;96.58;100889.16;8323854;28;20042;-48
2022/08/02 00:07:46;;;;;;;8.95;4.00;;;;;;;17.00;96.04;100896.00;8324905;28;20079;-48
2022/08/02 00:11:47;;;;;;;5.82;3.50;;;;;;;16.61;98.92;100892.25;8325272;28;20033;-48
2022/08/02 00:15:47;;;;;;;5.57;3.53;;;;;;;16.45;98.81;100879.47;8324907;28;20033;-49
2022/08/02 00:19:48;;;;;;;9.27;4.32;;;;;;;16.30;100.00;100888.44;8323096;28;20029;-51
2022/08/02 00:23:48;;;;;;;8.48;3.60;;;;;;;16.28;100.00;100885.91;8321778;28;20494;-50
2022/08/02 00:27:48;;;;;;;9.35;3.70;;;;;;;16.38;99.68;100885.75;8323691;28;20037;-48
2022/08/02 00:31:49;;;;;;;6.40;4.38;;;;;;;16.38;100.00;100883.03;8323303;28;20270;-47
2022/08/02 00:35:49;;;;;;;4.28;3.78;;;;;;;16.02;100.00;100878.84;8323764;28;20030;-47
2022/08/02 00:39:50;;;;;;;13.93;5.00;;;;;;;16.09;100.00;100885.34;8324199;28;20402;-50
2022/08/02 00:43:51;;;;;;;7.47;4.43;;;;;;;16.15;100.00;100879.22;8322175;28;20049;-48
2022/08/02 00:47:51;;;;;;;10.02;4.57;;;;;;;16.13;100.00;100870.38;8322865;28;20276;-47
2022/08/02 00:51:52;;;;;;;14.55;4.55;;;;;;;16.30;100.00;100864.75;8323069;28;20075;-47
2022/08/02 00:55:52;;;;;;;8.10;4.60;;;;;;;16.22;100.00;100864.75;8322124;28;20037;-48
2022/08/02 00:59:53;;;;;;;15.68;4.75;;;;;;;16.17;100.00;100863.53;8322420;28;20465;-52
2022/08/02 01:03:53;;;;;;;8.35;4.70;;;;;;;16.32;100.00;100859.13;8322599;28;20421;-48
2022/08/02 01:07:53;;;;;;;8.23;4.80;;;;;;;16.26;100.00;100859.81;8322373;28;20026;-48
2022/08/02 01:11:54;;;;;;;11.50;4.82;;;;;;;16.15;100.00;100862.84;8323053;28;20264;-48
2022/08/02 01:16:03;;;;;;;9.25;5.18;;;;;;;16.05;100.00;100863.03;8321562;28;20033;-48
2022/08/02 01:20:32;;;;;;;11.48;5.30;;;;;;;16.08;100.00;100861.81;8321931;28;20033;-48
2022/08/02 01:24:57;;;;;;;7.53;6.22;;;;;;;16.18;100.00;100862.50;8323180;28;20037;-47
2022/08/02 01:29:07;;;;;;;7.43;5.85;;;;;;;16.18;100.00;100854.31;8322122;28;20036;-51
2022/08/02 01:33:13;;;;;;;11.07;5.60;;;;;;;16.15;100.00;100852.81;8315285;28;20064;-47
2022/08/02 01:37:21;;;;;;;8.05;4.70;;;;;;;16.26;100.00;100854.34;8352789;28;20072;-49
2022/08/02 01:41:25;;;;;;;8.40;5.47;;;;;;;16.40;100.00;100867.31;8320466;28;20044;-47
2022/08/02 01:45:31;;;;;;;12.68;6.40;;;;;;;16.51;99.43;100864.28;8321875;28;20037;-48
2022/08/02 01:49:34;;;;;;;8.55;5.30;;;;;;;16.56;98.34;100853.72;8316292;28;20394;-48
2022/08/02 01:53:36;;;;;;;9.82;5.68;;;;;;;16.57;98.94;100844.50;8321401;28;20045;-48
2022/08/02 01:57:40;;;;;;;9.25;5.80;;;;;;;16.45;98.73;100854.91;8321326;28;20033;-48
2022/08/02 02:01:42;;;;;;;14.93;6.10;;;;;;;16.23;99.85;100843.78;8321091;28;20029;-51
2022/08/02 02:05:43;;;;;;;15.32;6.63;;;;;;;16.08;100.00;100845.44;8321750;28;20033;-51
2022/08/02 02:09:45;;;;;;;15.43;6.93;;;;;;;15.94;100.00;100832.47;8303180;28;20466;-48
2022/08/02 02:13:46;;;;;;;19.88;7.22;;;;;;;15.95;100.00;100835.00;8321606;28;20033;-47
2022/08/02 02:17:50;;;;;;;15.15;7.47;;;;;;;15.91;100.00;100825.47;8321181;28;20029;-49
2022/08/02 02:21:50;;;;;;;12.60;6.90;;;;;;;15.88;100.00;100834.00;8319987;28;20243;-49
2022/08/02 02:25:53;;;;;;;16.85;7.43;;;;;;;15.73;100.00;100834.81;8321403;28;20042;-49
2022/08/02 02:29:55;;;;;;;12.98;7.43;;;;;;;15.61;100.00;100829.66;8321423;28;20044;-48
2022/08/02 02:34:02;;;;;;;12.90;7.32;;;;;;;15.58;100.00;100829.97;8321456;28;20083;-49
2022/08/02 02:38:05;;;;;;;11.23;6.45;;;;;;;15.46;100.00;100822.25;8315572;28;20041;-49
2022/08/02 02:42:09;;;;;;;7.95;6.70;;;;;;;15.49;100.00;100817.34;8315262;28;20475;-51
2022/08/02 02:46:12;;;;;;;9.90;6.97;;;;;;;15.46;100.00;100820.41;8321878;28;20482;-52
2022/08/02 02:50:12;;;;;;;10.93;6.80;;;;;;;15.38;100.00;100819.53;8328040;28;20049;-48
2022/08/02 02:54:14;;;;;;;10.68;7.30;;;;;;;15.46;100.00;100822.25;8327487;28;20129;-48
2022/08/02 02:58:15;;;;;;;9.02;7.47;;;;;;;15.50;100.00;100810.03;8326397;28;20095;-51
2022/08/02 03:02:17;;;;;;;12.98;7.63;;;;;;;15.48;100.00;100821.09;8326060;28;20065;-52
2022/08/02 03:06:18;;;;;;;8.73;7.60;;;;;;;15.51;100.00;100823.50;8308063;28;20121;-49
2022/08/02 03:10:19;;;;;;;10.82;8.13;;;;;;;15.43;100.00;100809.81;8326227;28;20037;-50
2022/08/02 03:14:20;;;;;;;13.30;8.45;;;;;;;15.50;100.00;100805.41;8326646;28;20037;-50
2022/08/02 03:18:38;;;;;;;8.68;7.53;;;;;;;15.46;100.00;100801.31;8324005;28;20045;-50
2022/08/02 03:22:39;;;;;;;11.75;7.72;;;;;;;15.41;100.00;100795.50;8325232;28;20041;-52
2022/08/02 03:26:40;;;;;;;10.43;8.55;;;;;;;15.38;100.00;100798.59;8326082;28;20068;-51
2022/08/02 03:30:41;;;;;;;13.52;8.43;;;;;;;15.40;100.00;100791.09;8332120;28;20503;-49
2022/08/02 03:34:41;;;;;;;13.82;8.02;;;;;;;15.39;100.00;100793.97;8341099;28;20520;-49
2022/08/02 03:38:43;;;;;;;12.52;8.60;;;;;;;15.40;100.00;100798.44;8325949;28;20039;-48
2022/08/02 03:42:45;;;;;;;11.38;8.07;;;;;;;15.37;100.00;100788.69;8325843;28;20038;-52
2022/08/02 03:46:46;;;;;;;13.32;8.75;;;;;;;15.32;100.00;100792.91;8325346;28;20040;-48
2022/08/02 03:50:47;;;;;;;11.45;8.85;;;;;;;15.30;100.00;100787.63;8324605;28;20557;-52
2022/08/02 03:54:47;;;;;;;13.60;8.88;;;;;;;15.28;100.00;100797.81;8325039;28;20044;-49
2022/08/02 03:58:48;;;;;;;12.82;8.73;;;;;;;15.31;100.00;100796.66;8317394;28;20029;-52
2022/08/02 04:02:49;;;;;;;12.30;8.02;;;;;;;15.23;100.00;100789.28;8324762;28;20120;-48
2022/08/02 04:06:49;;;;;;;13.10;7.93;;;;;;;15.20;100.00;100789.63;8317890;28;20084;-49
2022/08/02 04:11:50;;;;;;;9.40;7.45;;;;;;;15.18;100.00;100797.09;8324532;28;20037;-50
2022/08/02 04:15:13;;;;;;;9.40;7.82;;;;;;;15.26;100.00;100799.88;8318688;28;20036;-51
2022/08/02 04:19:18;;;;;;;9.27;8.10;;;;;;;15.26;100.00;100788.09;8323543;28;20674;-48
2022/08/02 04:23:22;;;;;;;;;;;;;;;15.28;100.00;100786.91;8323508;28;20093;-49
2022/08/02 04:27:23;;;;;;;12.00;7.85;;;;;;;15.31;100.00;100802.94;8322981;28;20492;-48
2022/08/02 04:31:24;;;;;;;10.65;7.90;;;;;;;15.36;100.00;100802.44;8320054;28;20033;-49
2022/08/02 04:35:24;;;;;;;13.30;7.22;;;;;;;15.47;100.00;100802.19;8321333;28;20038;-51
2022/08/02 04:39:25;;;;;;;11.70;8.13;;;;;;;15.53;100.00;100813.25;8323546;28;20474;-48
2022/08/02 04:43:26;;;;;;;12.23;7.75;;;;;;;15.62;100.00;100815.00;8323800;28;20055;-48
2022/08/02 04:47:26;;;;;;;8.23;7.05;;;;;;;15.62;100.00;100817.72;8322247;28;20037;-48
2022/08/02 04:51:27;;;;;;;12.82;7.82;;;;;;;15.58;100.00;100810.91;8323549;28;20041;-52
2022/08/02 04:55:28;;;;;;;11.32;7.65;;;;;;;15.68;100.00;100811.59;8321451;28;20500;-48
2022/08/02 04:59:29;;;;;;;9.30;7.50;;;;;;;15.84;100.00;100809.94;8323149;28;20041;-52
2022/08/02 05:03:29;;;;;;;11.55;7.03;;;;;;;15.96;100.00;100814.06;8321865;28;20060;-49
2022/08/02 05:07:30;;;;;;;13.45;7.72;;;;;;;16.03;100.00;100815.09;8316849;28;20038;-48
2022/08/02 05:11:30;;;;;;;9.70;7.35;;;;;;;16.28;100.00;100822.31;8321253;28;20064;-52
2022/08/02 05:15:31;;;;;;;9.50;7.55;;;;;;;16.42;100.00;100819.75;8320610;28;20044;-49
2022/08/02 05:19:31;;;;;;;10.65;7.28;;;;;;;16.72;100.00;100824.53;8322206;28;20036;-50
2022/08/02 05:23:31;;;;;;;14.38;6.50;;;;;;;17.06;100.00;100816.09;8319663;28;20038;-48
2022/08/02 05:27:32;;;;;;;9.43;5.93;;;;;;;17.22;99.56;100810.56;8316823;28;20087;-49
2022/08/02 05:31:32;;;;;;;6.85;6.15;;;;;;;17.50;99.12;100812.72;8319452;28;20086;-49
2022/08/02 05:35:33;;;;;;;8.37;5.83;;;;;;;18.02;95.97;100823.03;8320629;28;20044;-49
2022/08/02 05:39:34;;;;;;;11.20;5.55;;;;;;;18.39;94.51;100813.03;8322705;28;20283;-49
2022/08/02 05:43:34;;;;;;;7.35;5.78;;;;;;;18.50;92.87;100806.25;8322449;28;20042;-49
2022/08/02 05:47:35;;;;;;;14.88;5.82;;;;;;;18.67;92.10;100810.56;8321792;28;20037;-50
2022/08/02 05:51:38;;;;;;;6.97;6.20;;;;;;;18.86;91.96;100821.00;8321204;28;20033;-48
2022/08/02 05:55:47;;;;;;;6.40;5.68;;;;;;;19.15;90.99;100810.91;8320764;28;20037;-48
2022/08/02 06:00:08;;;;;;;8.15;4.88;;;;;;;19.39;90.38;100815.28;8321214;28;20589;-49
2022/08/02 06:04:14;;;;;;;11.70;6.07;;;;;;;19.52;89.29;100813.56;8320523;28;20037;-49
2022/08/02 06:08:14;;;;;;;9.75;5.68;;;;;;;19.89;87.86;100812.56;8316317;28;20391;-49
2022/08/02 06:12:16;;;;;;;8.55;5.07;;;;;;;20.17;86.07;100812.69;8319261;28;20049;-48
2022/08/02 06:16:18;;;;;;;7.05;4.80;;;;;;;20.44;85.51;100814.66;8320039;28;20049;-48
2022/08/02 06:20:19;;;;;;;8.63;5.03;;;;;;;20.74;84.81;100821.69;8319641;28;20046;-49
2022/08/02 06:24:20;;;;;;;10.73;5.38;;;;;;;20.94;83.66;100817.19;8327414;28;20045;-49
2022/08/02 06:28:22;;;;;;;14.07;5.25;;;;;;;21.16;82.67;100810.59;8327680;28;20042;-48
2022/08/02 06:32:22;;;;;;;8.32;4.45;;;;;;;21.31;81.73;100808.56;8315693;28;20041;-48
2022/08/02 06:36:49;;;;;;;7.28;4.53;;;;;;;21.23;82.22;100803.25;8322896;28;20087;-51
2022/08/02 06:41:07;;;;;;;9.80;4.30;;;;;;;21.75;80.02;100795.31;8324486;28;20045;-52
2022/08/02 06:45:08;;;;;;;7.93;4.60;;;;;;;21.97;79.26;100798.75;8325935;28;20402;-50
2022/08/02 06:49:09;;;;;;;9.15;5.07;;;;;;;22.24;78.40;100795.88;8327221;28;20033;-49
2022/08/02 06:53:11;;;;;;;11.18;4.13;;;;;;;22.33;78.35;100805.63;8325040;28;20048;-49
2022/08/02 06:57:11;;;;;;;10.45;3.85;;;;;;;22.93;76.17;100807.34;8325729;28;20582;-50
2022/08/02 07:01:12;;;;;;;9.68;3.70;;;;;;;23.14;75.74;100812.63;8326194;28;20554;-49
2022/08/02 07:05:13;;;;;;;5.93;3.22;;;;;;;23.30;74.89;100808.63;8319575;28;20585;-50
2022/08/02 07:09:13;;;;;;;6.82;4.32;;;;;;;23.77;73.08;100800.81;8323965;28;20064;-53
2022/08/02 07:13:13;;;;;;;6.95;4.57;;;;;;;24.03;73.05;100805.41;8325884;28;20030;-50
2022/08/02 07:17:14;;;;;;;8.20;4.40;;;;;;;24.19;71.79;100805.72;8326188;28;20080;-49
2022/08/02 07:21:14;;;;;;;7.05;3.58;;;;;;;24.33;71.96;100806.47;8325615;28;20789;-49
2022/08/02 07:25:15;;;;;;;6.33;4.20;;;;;;;24.66;70.10;100796.06;8325452;28;20135;-48
2022/08/02 07:29:15;;;;;;;5.43;3.50;;;;;;;24.83;70.45;100800.78;8325371;28;20279;-49
2022/08/02 07:33:16;;;;;;;5.85;3.28;;;;;;;25.14;69.47;100794.34;8325240;28;20038;-50
2022/08/02 07:37:16;;;;;;;11.80;4.10;;;;;;;25.23;69.10;100809.56;8325411;28;20037;-53
2022/08/02 07:41:17;;;;;;;5.05;3.05;;;;;;;25.62;68.19;100798.09;8325077;28;20065;-49
2022/08/02 07:45:18;;;;;;;5.13;2.20;;;;;;;26.14;66.57;100791.84;8325139;28;20394;-49
2022/08/02 07:49:18;;;;;;;6.78;2.40;;;;;;;26.34;65.82;100786.88;8325174;28;20030;-50
2022/08/02 07:53:19;;;;;;;2.87;2.20;;;;;;;26.40;65.54;100785.94;8324457;28;20048;-50
2022/08/02 07:57:19;;;;;;;7.32;2.45;;;;;;;26.37;65.95;100786.41;8346880;28;20375;-53
2022/08/02 08:01:20;;;;;;;6.10;2.38;;;;;;;26.25;65.53;100798.53;8323258;28;20124;-51
2022/08/02 08:05:21;;;;;;;3.43;2.00;;;;;;;27.20;62.47;100781.56;8324900;28;20445;-49
2022/08/02 08:09:21;;;;;;;9.00;2.10;;;;;;;27.41;62.54;100777.38;8318531;28;20295;-53
2022/08/02 08:13:22;;;;;;;7.97;1.85;;;;;;;27.48;61.57;100783.63;8324515;28;20510;-51
2022/08/02 08:17:23;;;;;;;2.47;1.90;;;;;;;27.81;60.14;100764.34;8324430;28;20045;-52
2022/08/02 08:21:23;;;;;;;3.80;2.00;;;;;;;28.19;58.93;100767.34;8323829;28;20545;-53
2022/08/02 08:25:24;;;;;;;3.55;1.77;;;;;;;28.38;58.92;100763.25;8322951;28;20037;-51
2022/08/02 08:29:25;;;;;;;4.07;1.50;;;;;;;28.65;58.26;100755.97;8323668;28;20033;-49
2022/08/02 08:33:25;;;;;;;4.20;1.65;;;;;;;28.85;57.78;100761.91;8323200;28;20478;-53
2022/08/02 08:37:26;;;;;;;1.97;1.77;;;;;;;29.08;57.16;100761.72;8323153;28;20038;-49
2022/08/02 08:41:26;;;;;;;3.92;1.95;;;;;;;29.11;56.99;100768.72;8323696;28;20288;-53
2022/08/02 08:45:27;;;;;;;2.65;1.80;;;;;;;29.02;56.45;100759.91;8322428;28;20383;-51
2022/08/02 08:49:38;;;;;;;1.60;1.50;;;;;;;29.12;56.82;100754.53;8323243;28;20048;-50
2022/08/02 08:53:42;;;;;;;2.42;1.50;;;;;;;29.21;55.68;100753.00;8322486;28;20041;-53
2022/08/02 08:57:43;;;;;;;;;;;;;;;29.45;55.09;100753.59;8322571;28;20124;-50
2022/08/02 09:01:45;;;;;;;2.83;1.55;;;;;;;29.12;55.96;100754.53;8321476;28;19928;-53
2022/08/02 09:05:45;;;;;;;1.95;1.27;;;;;;;29.61;54.16;100742.41;8322352;28;20044;-50
2022/08/02 09:09:46;;;;;;;1.35;1.17;;;;;;;29.61;53.22;100747.97;8322396;28;20045;-53
2022/08/02 09:13:50;;;;;;;2.75;1.30;;;;;;;29.64;53.40;100741.91;8322138;28;20041;-50
2022/08/02 09:17:52;;;;;;;4.97;1.67;;;;;;;30.05;52.68;100738.50;8321720;28;20498;-49
2022/08/02 09:22:03;;;;;;;5.00;1.40;;;;;;;29.00;54.88;100739.84;8322102;28;20037;-49
2022/08/02 09:26:06;;;;;;;5.05;1.52;;;;;;;28.85;56.04;100747.97;8322060;28;20037;-50
2022/08/02 09:30:12;;;;;;;4.03;1.63;;;;;;;28.41;55.87;100746.06;8321970;28;20110;-53
2022/08/02 09:34:13;;;;;;;3.63;1.60;;;;;;;28.36;56.33;100744.03;8321492;28;20049;-52
2022/08/02 09:38:13;;;;;;;3.92;1.55;;;;;;;28.42;54.84;100742.22;8322325;28;20094;-52
2022/08/02 09:42:14;;;;;;;3.33;1.30;;;;;;;28.51;54.51;100740.69;8321417;28;20045;-50
2022/08/02 09:46:17;;;;;;;3.00;1.23;;;;;;;29.17;54.38;100740.69;8321197;28;20505;-51
2022/08/02 09:50:17;;;;;;;2.97;1.10;;;;;;;30.19;51.10;100728.63;8324911;28;20034;-50
2022/08/02 09:54:24;;;;;;;4.55;1.60;;;;;;;30.61;50.44;100728.72;8321557;28;20045;-51
2022/08/02 09:58:24;;;;;;;1.25;1.10;;;;;;;32.12;46.96;100730.47;8318780;28;20047;-50
2022/08/02 10:02:25;;;;;;;1.27;0.80;;;;;;;33.91;43.15;100733.41;8320919;28;20042;-50
2022/08/02 10:06:26;;;;;;;1.73;1.20;;;;;;;35.00;43.25;100738.53;8319807;28;20521;-50
2022/08/02 10:10:27;;;;;;;1.42;1.00;;;;;;;35.24;44.14;100733.75;8321338;28;20045;-52
2022/08/02 10:14:27;;;;;;;2.58;0.93;;;;;;;35.92;41.40;100729.59;8320106;28;20525;-53
2022/08/02 10:18:28;;;;;;;2.65;1.00;;;;;;;35.22;42.43;100731.22;8320900;28;20119;-51
2022/08/02 10:22:29;;;;;;;2.45;0.85;;;;;;;35.87;42.09;100726.00;8321805;28;20065;-52
2022/08/02 10:26:30;;;;;;;1.40;1.00;;;;;;;35.86;41.71;100730.81;8320426;28;20557;-53
2022/08/02 10:30:32;;;;;;;8.00;1.25;;;;;;;36.41;41.46;100713.09;8322655;28;20092;-50
2022/08/02 10:34:40;;;;;;;0.98;0.88;;;;;;;36.62;40.55;100722.06;8320831;28;20044;-54
2022/08/02 10:38:42;;;;;;;2.53;1.17;;;;;;;36.60;40.87;100721.53;8319712;28;20029;-50
2022/08/02 10:42:46;;;;;;;1.20;1.00;;;;;;;37.66;40.19;100709.13;8320985;28;20037;-51
2022/08/02 10:46:46;;;;;;;2.45;1.05;;;;;;;38.42;38.66;100711.91;8320490;28;20083;-50
2022/08/02 10:55:08;;;;;;;2.47;1.10;;;;;;;37.93;37.63;100709.09;8309945;28;20879;-50
2022/08/02 10:59:31;;;;;;;2.70;1.40;;;;;;;33.81;44.43;100697.75;8314963;28;20041;-49
2022/08/02 11:07:46;;;;;;;2.42;1.40;;;;;;;32.48;46.69;100695.84;8325336;27;20430;-49
2022/08/02 11:12:08;;;;;;;4.38;1.42;;;;;;;31.63;48.86;100690.88;8315604;28;20103;-49
2022/08/02 11:16:08;;;;;;;1.83;1.23;;;;;;;34.97;43.70;100702.56;8316110;28;20398;-50
2022/08/02 11:20:14;;;;;;;1.93;1.40;;;;;;;34.75;43.27;100690.94;8308568;28;20056;-51
2022/08/02 11:24:33;;;;;;;4.07;1.48;;;;;;;36.18;41.91;100697.09;8315407;28;20030;-53
2022/08/02 11:28:33;;;;;;;3.22;1.30;;;;;;;37.26;39.97;100688.22;8309721;28;20097;-49
2022/08/02 11:32:34;;;;;;;1.40;1.05;;;;;;;35.10;41.98;100694.25;8317247;28;20057;-50
2022/08/02 11:36:51;;;;;;;2.40;1.33;;;;;;;32.75;46.02;100699.16;8315608;28;20312;-53
2022/08/02 11:40:51;;;;;;;2.03;1.42;;;;;;;32.37;46.50;100685.75;8348472;28;20082;-50
2022/08/02 11:44:52;;;;;;;1.58;1.40;;;;;;;31.76;47.07;100684.75;8348150;28;20034;-53
2022/08/02 11:48:52;;;;;;;6.32;1.42;;;;;;;34.61;43.78;100679.53;8349973;28;20400;-52
2022/08/02 11:52:54;;;;;;;2.33;1.00;;;;;;;37.06;40.56;100689.41;8349516;28;20497;-49
2022/08/02 11:56:54;;;;;;;2.33;1.05;;;;;;;37.47;39.93;100694.28;8348849;28;20100;-49
2022/08/02 12:00:55;;;;;;;1.63;1.10;;;;;;;36.65;40.15;100685.63;8349083;28;20030;-51
2022/08/02 12:04:58;;;;;;;1.77;1.20;;;;;;;35.36;41.56;100686.38;8346251;28;20119;-51
2022/08/02 12:09:07;;;;;;;;;;;;;;;33.93;43.91;100681.44;8348941;28;20048;-53
2022/08/02 12:13:07;;;;;;;4.97;1.30;;;;;;;32.82;46.32;100685.72;8347205;28;20369;-50
2022/08/02 12:21:28;;;;;;;1.83;1.20;;;;;;;32.14;47.25;100675.06;8325809;28;20065;-52
2022/08/02 12:25:31;;;;;;;6.00;1.40;;;;;;;32.48;46.72;100673.44;8325930;28;20486;-50
2022/08/02 12:29:36;;;;;;;1.38;1.27;;;;;;;32.35;46.56;100665.56;8324894;28;20102;-50
2022/08/02 12:33:47;;;;;;;4.65;1.30;;;;;;;32.18;46.37;100677.03;8326426;28;20170;-50
2022/08/02 12:37:49;;;;;;;2.50;1.15;;;;;;;32.06;45.80;100667.22;8325886;28;20044;-51
2022/08/02 12:41:56;;;;;;;8.35;1.13;;;;;;;32.21;46.00;100665.25;8325651;28;20083;-49
2022/08/02 12:45:56;;;;;;;3.97;1.15;;;;;;;32.63;45.43;100662.22;8324959;28;20045;-50
2022/08/02 12:50:16;;;;;;;2.58;1.52;;;;;;;32.27;45.38;100648.47;8325987;28;20049;-49
2022/08/02 12:54:21;;;;;;;1.77;1.20;;;;;;;32.59;45.21;100661.09;8296199;28;20030;-49
2022/08/02 12:58:21;;;;;;;2.58;1.13;;;;;;;32.05;45.73;100651.56;8285936;28;20037;-49
2022/08/02 13:02:22;;;;;;;3.95;1.33;;;;;;;32.20;45.59;100651.56;8290777;28;20038;-49
2022/08/02 13:06:23;;;;;;;2.37;1.00;;;;;;;32.18;46.33;100648.19;8292012;28;20037;-49
2022/08/02 13:10:24;;;;;;;1.35;1.25;;;;;;;32.41;45.98;100644.84;8291360;28;20037;-49
2022/08/02 13:14:24;;;;;;;2.78;1.20;;;;;;;32.16;46.06;100634.47;8290649;28;20022;-52
2022/08/02 13:18:25;;;;;;;2.70;1.35;;;;;;;32.33;46.77;100645.41;8291681;28;20050;-49
2022/08/02 13:22:25;;;;;;;1.98;1.42;;;;;;;32.14;46.78;100624.69;8292237;28;20068;-50
2022/08/02 13:26:26;;;;;;;2.30;1.52;;;;;;;32.53;46.05;100639.81;8290784;28;20487;-51
2022/08/02 13:30:26;;;;;;;1.30;1.10;;;;;;;32.38;46.39;100637.03;8290665;28;20590;-53
2022/08/02 13:34:27;;;;;;;4.15;1.20;;;;;;;32.43;45.66;100631.44;8289907;28;20296;-49
2022/08/02 13:38:27;;;;;;;2.03;1.30;;;;;;;32.23;46.49;100628.59;8290988;28;20036;-49
2022/08/02 13:42:28;;;;;;;1.90;1.50;;;;;;;32.30;46.00;100628.31;8286940;28;20038;-49
2022/08/02 13:46:29;;;;;;;1.27;1.00;;;;;;;32.24;46.38;100625.50;8286807;28;20653;-50
2022/08/02 13:50:30;;;;;;;3.75;1.17;;;;;;;32.47;46.21;100623.31;8289315;28;20127;-51
2022/08/02 13:54:31;;;;;;;1.85;1.30;;;;;;;32.09;46.26;100608.75;8289122;28;20026;-51
2022/08/02 13:58:31;;;;;;;2.85;1.42;;;;;;;32.04;46.51;100613.47;8288915;28;20041;-53
2022/08/02 14:02:32;;;;;;;9.18;1.40;;;;;;;32.01;46.77;100608.44;8286374;28;20040;-53
2022/08/02 14:06:32;;;;;;;4.15;1.30;;;;;;;32.01;47.13;100605.63;8287811;28;20060;-52
2022/08/02 14:10:33;;;;;;;4.30;1.50;;;;;;;32.13;45.94;100611.81;8288873;28;20038;-53
2022/08/02 14:14:33;;;;;;;2.80;1.65;;;;;;;32.02;46.58;100596.97;8286247;28;20041;-50
2022/08/02 14:18:34;;;;;;;1.17;1.00;;;;;;;32.08;46.44;100606.22;8285840;28;20034;-51
2022/08/02 14:22:34;;;;;;;6.95;1.63;;;;;;;32.01;46.95;100589.69;8280222;28;20048;-49
2022/08/02 14:26:35;;;;;;;3.70;1.20;;;;;;;32.18;47.40;100600.63;8281175;28;20034;-53
2022/08/02 14:30:35;;;;;;;3.45;1.52;;;;;;;31.30;47.04;100589.81;8291828;28;20352;-52
2022/08/02 14:34:36;;;;;;;4.90;1.40;;;;;;;31.82;47.23;100590.53;8313861;28;20037;-53
2022/08/02 14:38:36;;;;;;;3.08;1.58;;;;;;;31.70;46.96;100590.75;8314008;28;20041;-50
2022/08/02 14:42:37;;;;;;;1.60;1.50;;;;;;;32.02;46.71;100585.78;8315110;28;20489;-53
2022/08/02 14:46:40;;;;;;;2.73;1.10;;;;;;;31.66;47.56;100584.06;8314813;28;20029;-49
2022/08/02 14:50:40;;;;;;;1.85;1.45;;;;;;;32.08;47.13;100581.03;8310335;28;20348;-52
2022/08/02 14:54:41;;;;;;;13.25;1.98;;;;;;;31.89;46.79;100577.09;8309549;28;20541;-50
2022/08/02 14:58:42;;;;;;;2.65;1.52;;;;;;;31.93;46.83;100578.25;8317834;28;20091;-52
2022/08/02 15:02:42;;;;;;;2.47;1.40;;;;;;;31.69;47.39;100563.94;8311959;28;20092;-53
2022/08/02 15:06:43;;;;;;;3.83;1.20;;;;;;;32.04;47.92;100563.13;8312155;28;20279;-50
2022/08/02 15:10:44;;;;;;;2.22;1.15;;;;;;;32.21;46.93;100558.09;8299859;28;20048;-51
2022/08/02 15:14:44;;;;;;;1.70;1.38;;;;;;;31.59;47.91;100558.28;8310790;28;20045;-50
2022/08/02 15:18:45;;;;;;;4.50;1.17;;;;;;;31.39;48.07;100549.03;8311615;28;20092;-53
2022/08/02 15:22:45;;;;;;;5.60;1.70;;;;;;;31.83;48.28;100555.84;8311415;28;20406;-53
2022/08/02 15:26:46;;;;;;;1.77;1.10;;;;;;;32.02;47.08;100548.59;8311013;28;20041;-49
2022/08/02 15:30:47;;;;;;;3.25;1.52;;;;;;;31.87;47.84;100552.19;8294251;28;20280;-51
2022/08/02 15:34:47;;;;;;;2.23;1.67;;;;;;;31.61;48.46;100546.84;8309724;28;20040;-53
2022/08/02 15:38:48;;;;;;;1.85;1.40;;;;;;;31.75;48.29;100542.38;8310410;28;20423;-52
2022/08/02 15:42:48;;;;;;;4.93;1.40;;;;;;;31.84;47.29;100546.34;8306168;28;20041;-50
2022/08/02 15:46:50;;;;;;;1.42;1.20;;;;;;;31.77;46.87;100540.97;8281539;28;20038;-53
2022/08/02 15:50:50;;;;;;;4.40;1.30;;;;;;;31.79;47.88;100540.69;8280963;28;20537;-51
2022/08/02 15:54:51;;;;;;;1.80;1.40;;;;;;;31.66;47.39;100539.31;8303351;28;20418;-53
2022/08/02 15:58:51;;;;;;;2.75;1.50;;;;;;;31.44;47.36;100535.09;8288063;28;20693;-51
2022/08/02 16:02:52;;;;;;;7.27;1.33;;;;;;;31.42;47.73;100534.50;8313666;28;20399;-51
2022/08/02 16:06:52;;;;;;;3.75;1.48;;;;;;;31.14;47.85;100521.00;8316017;28;20645;-53
2022/08/02 16:10:52;;;;;;;6.40;1.80;;;;;;;31.35;48.09;100529.16;8317631;28;20034;-53
2022/08/02 16:14:53;;;;;;;2.38;1.35;;;;;;;31.42;48.28;100526.13;8315448;28;20316;-53
2022/08/02 16:18:54;;;;;;;19.70;1.83;;;;;;;31.52;47.95;100526.13;8315967;28;20052;-49
2022/08/02 16:22:54;;;;;;;1.45;1.15;;;;;;;31.33;48.21;100520.25;8316544;28;20273;-49
2022/08/02 16:26:55;;;;;;;3.37;1.30;;;;;;;31.42;48.37;100523.34;8315068;28;20770;-51
2022/08/02 16:30:55;;;;;;;2.38;1.13;;;;;;;31.31;48.49;100518.81;8314005;28;20647;-51
2022/08/02 16:34:56;;;;;;;5.20;1.00;;;;;;;31.13;48.98;100511.78;8315623;28;20349;-49
2022/08/02 16:38:56;;;;;;;2.37;1.17;;;;;;;31.20;48.27;100517.09;8316049;28;20653;-51
2022/08/02 16:42:57;;;;;;;2.30;1.25;;;;;;;31.34;48.69;100507.09;8305266;28;20788;-53
2022/08/02 16:46:57;;;;;;;5.33;1.33;;;;;;;31.39;48.81;100507.13;8316307;28;20066;-52
2022/08/02 16:50:58;;;;;;;4.10;1.10;;;;;;;31.14;49.02;100507.03;8320465;28;20140;-51
2022/08/02 16:54:58;;;;;;;12.52;1.52;;;;;;;30.98;49.88;100513.69;8320825;28;20037;-53
2022/08/02 16:58:59;;;;;;;5.87;1.80;;;;;;;30.84;50.50;100504.13;8319527;28;20499;-49
2022/08/02 17:03:00;;;;;;;2.65;1.75;;;;;;;30.89;50.08;100501.38;8318970;28;20828;-49
2022/08/02 17:07:00;;;;;;;2.35;1.25;;;;;;;30.90;50.16;100498.31;8319037;28;20045;-50
2022/08/02 17:11:01;;;;;;;3.00;1.38;;;;;;;30.94;50.36;100495.78;8319674;28;20493;-53
2022/08/02 17:15:01;;;;;;;3.05;1.50;;;;;;;30.93;50.23;100502.50;8318460;28;20034;-52
2022/08/02 17:19:02;;;;;;;1.45;1.17;;;;;;;31.00;50.11;100491.88;8320623;28;20033;-49
2022/08/02 17:23:03;;;;;;;2.72;1.40;;;;;;;30.83;50.02;100494.91;8319956;28;20319;-50
2022/08/02 17:27:03;;;;;;;3.13;1.70;;;;;;;30.64;51.23;100496.47;8320312;28;20284;-53
2022/08/02 17:31:04;;;;;;;2.78;1.40;;;;;;;30.62;50.56;100503.44;8318820;28;20029;-53
2022/08/02 17:35:05;;;;;;;1.90;1.57;;;;;;;30.53;50.65;100499.50;8318670;28;20084;-49
2022/08/02 17:39:06;;;;;;;2.10;1.23;;;;;;;30.46;51.33;100487.75;8319286;28;20284;-53
2022/08/02 17:43:07;;;;;;;5.50;1.50;;;;;;;30.35;51.11;100486.84;8318610;28;20029;-51
2022/08/02 17:47:08;;;;;;;2.90;1.33;;;;;;;30.29;51.52;100490.72;8318049;28;20073;-49
2022/08/02 17:51:08;;;;;;;4.40;1.88;;;;;;;30.20;51.59;100490.41;8319289;28;20359;-49
2022/08/02 17:55:11;;;;;;;3.43;1.73;;;;;;;30.22;51.50;100493.75;8318695;28;20037;-50
2022/08/02 17:59:17;;;;;;;1.63;1.37;;;;;;;30.21;51.42;100492.06;8318540;28;20302;-52
2022/08/02 18:03:18;;;;;;;5.80;1.30;;;;;;;30.14;51.24;100497.03;8306428;28;20058;-52
2022/08/02 18:07:18;;;;;;;3.87;1.83;;;;;;;30.03;51.06;100498.03;8313854;28;20120;-49
2022/08/02 18:11:19;;;;;;;3.63;1.38;;;;;;;29.87;51.56;100490.69;8318784;28;20319;-52
2022/08/02 18:15:20;;;;;;;2.50;1.50;;;;;;;29.73;51.75;100500.59;8317410;28;20103;-53
2022/08/02 18:19:20;;;;;;;3.17;1.25;;;;;;;29.70;51.86;100489.16;8317334;28;20284;-51
2022/08/02 18:23:22;;;;;;;1.83;1.33;;;;;;;29.58;52.19;100494.84;8318028;28;20037;-51
2022/08/02 18:27:22;;;;;;;3.33;1.67;;;;;;;29.53;52.12;100493.97;8318360;28;20095;-53
2022/08/02 18:31:24;;;;;;;2.60;1.58;;;;;;;29.52;51.82;100495.91;8314196;28;20141;-50
2022/08/02 18:35:24;;;;;;;2.20;1.27;;;;;;;29.26;52.67;100494.00;8317379;28;20065;-53
2022/08/02 18:39:25;;;;;;;1.73;1.13;;;;;;;29.25;53.02;100494.25;8316886;28;20084;-51
2022/08/02 18:43:25;;;;;;;2.92;1.10;;;;;;;29.01;53.69;100490.91;8317501;28;20112;-53
2022/08/02 18:47:26;;;;;;;1.93;1.10;;;;;;;28.99;53.33;100497.81;8318333;28;20043;-52
2022/08/02 18:51:26;;;;;;;2.90;1.20;;;;;;;28.77;53.56;100494.22;8317436;28;20303;-52
2022/08/02 18:55:26;;;;;;;2.63;1.40;;;;;;;28.74;53.66;100500.31;8317287;28;20727;-52